Time;durP1;ratioP1;P1;durP2;ratioP2;P2;SDS_P1;SDS_P2;PMS_P1;PMS_P2;Temp;Humidity;BMP_temperature;BMP_pressure;BME280_temperature;BME280_humidity;BME280_pressure;Samples;Min_cycle;Max_cycle;Signal;HPM_P1;HPM_P2
2020/12/01 00:01:22;;;;;;;8.13;6.85;;;;;;;;;;5076704;28;20207;-73
2020/12/01 00:03:49;;;;;;;8.10;5.72;;;;;;;;;;5080513;28;20293;-73
2020/12/01 00:06:15;;;;;;;9.82;7.05;;;;;;;;;;5073506;28;20215;-73
2020/12/01 00:08:43;;;;;;;10.38;7.20;;;;;;;;;;5070857;28;20192;-72
2020/12/01 00:11:12;;;;;;;8.80;6.93;;;;;;;;;;5074052;28;20224;-73
2020/12/01 00:13:38;;;;;;;7.80;5.90;;;;;;;;;;5074905;28;20261;-72
2020/12/01 00:16:04;;;;;;;6.30;5.68;;;;;;;;;;5077377;28;20214;-73
2020/12/01 00:18:30;;;;;;;10.77;8.20;;;;;;;;;;5075680;28;20267;-73
2020/12/01 00:20:56;;;;;;;12.18;9.05;;;;;;;;;;5077859;28;20181;-73
2020/12/01 00:23:26;;;;;;;10.40;8.70;;;;;;;;;;5076303;28;20185;-73
2020/12/01 00:25:55;;;;;;;16.13;9.82;;;;;;;;;;5074740;28;20220;-72
2020/12/01 00:28:21;;;;;;;19.67;10.80;;;;;;;;;;5074733;28;20393;-72
2020/12/01 00:30:49;;;;;;;11.63;8.77;;;;;;;;;;5071352;28;20185;-72
2020/12/01 00:33:14;;;;;;;14.15;8.90;;;;;;;;;;5076096;28;20177;-72
2020/12/01 00:35:43;;;;;;;9.70;6.60;;;;;;;;;;5077899;28;20216;-72
2020/12/01 00:38:09;;;;;;;9.63;7.43;;;;;;;;;;5075782;28;20435;-74
2020/12/01 00:40:35;;;;;;;9.10;7.10;;;;;;;;;;5080833;28;20168;-73
2020/12/01 00:43:01;;;;;;;10.63;7.00;;;;;;;;;;5080043;28;20455;-74
2020/12/01 00:45:27;;;;;;;8.93;7.60;;;;;;;;;;5078246;28;20222;-73
2020/12/01 00:47:55;;;;;;;9.52;7.95;;;;;;;;;;5077299;28;20559;-73
2020/12/01 00:50:22;;;;;;;10.82;8.73;;;;;;;;;;5079131;28;20333;-72
2020/12/01 00:52:48;;;;;;;14.02;9.23;;;;;;;;;;5077065;28;20232;-73
2020/12/01 00:55:14;;;;;;;12.50;7.90;;;;;;;;;;5078289;28;20285;-72
2020/12/01 00:57:40;;;;;;;13.23;7.97;;;;;;;;;;5078641;28;21170;-73
2020/12/01 01:00:13;;;;;;;11.50;8.48;;;;;;;;;;5077467;28;20470;-73
2020/12/01 01:02:40;;;;;;;13.57;8.82;;;;;;;;;;5077960;28;20588;-73
2020/12/01 01:05:06;;;;;;;11.73;7.90;;;;;;;;;;5077453;28;20181;-72
2020/12/01 01:07:33;;;;;;;13.20;9.02;;;;;;;;;;5076290;28;20653;-72
2020/12/01 01:09:59;;;;;;;8.40;7.57;;;;;;;;;;5077043;28;20589;-72
2020/12/01 01:12:25;;;;;;;11.23;8.52;;;;;;;;;;5077429;28;20231;-72
2020/12/01 01:14:55;;;;;;;11.32;8.60;;;;;;;;;;5078516;28;20652;-72
2020/12/01 01:17:21;;;;;;;7.95;7.05;;;;;;;;;;5078001;28;20181;-73
2020/12/01 01:19:47;;;;;;;15.30;9.60;;;;;;;;;;5077977;28;20211;-73
2020/12/01 01:22:13;;;;;;;10.02;7.90;;;;;;;;;;5083370;28;20479;-72
2020/12/01 01:24:39;;;;;;;10.98;8.00;;;;;;;;;;5083085;28;20184;-73
2020/12/01 01:27:07;;;;;;;9.45;8.30;;;;;;;;;;5083267;28;20291;-72
2020/12/01 01:29:33;;;;;;;12.95;9.98;;;;;;;;;;5078697;28;20686;-73
2020/12/01 01:31:59;;;;;;;14.60;10.20;;;;;;;;;;5078447;28;20601;-72
2020/12/01 01:34:25;;;;;;;10.10;8.05;;;;;;;;;;5073434;28;20510;-72
2020/12/01 01:36:51;;;;;;;13.53;8.97;;;;;;;;;;5073015;28;20628;-72
2020/12/01 01:39:17;;;;;;;13.82;9.45;;;;;;;;;;5070290;28;20439;-72
2020/12/01 01:41:43;;;;;;;13.05;9.02;;;;;;;;;;5071595;28;20212;-74
2020/12/01 01:44:19;;;;;;;12.98;8.95;;;;;;;;;;5072137;28;20180;-73
2020/12/01 01:46:47;;;;;;;12.15;8.88;;;;;;;;;;5071486;28;20632;-72
2020/12/01 01:49:15;;;;;;;11.65;9.55;;;;;;;;;;5063884;28;20261;-73
2020/12/01 01:51:45;;;;;;;11.38;9.25;;;;;;;;;;5069799;28;20676;-74
2020/12/01 01:54:11;;;;;;;11.93;8.68;;;;;;;;;;5074405;28;20608;-73
2020/12/01 01:56:40;;;;;;;13.50;8.37;;;;;;;;;;5074266;28;20203;-73
2020/12/01 01:59:07;;;;;;;10.90;9.27;;;;;;;;;;5074854;28;20760;-73
2020/12/01 02:01:35;;;;;;;17.05;10.15;;;;;;;;;;5075310;28;20250;-73
2020/12/01 02:04:03;;;;;;;14.70;10.13;;;;;;;;;;5073245;28;20205;-73
2020/12/01 02:06:31;;;;;;;14.18;9.30;;;;;;;;;;5071810;28;20208;-73
2020/12/01 02:09:09;;;;;;;13.45;11.38;;;;;;;;;;5073676;28;20184;-73
2020/12/01 02:11:36;;;;;;;13.32;10.30;;;;;;;;;;5067968;28;20236;-73
2020/12/01 02:14:05;;;;;;;12.23;9.30;;;;;;;;;;5076097;28;20177;-72
2020/12/01 02:16:34;;;;;;;10.38;8.38;;;;;;;;;;5076787;28;20180;-73
2020/12/01 02:19:00;;;;;;;13.00;8.80;;;;;;;;;;5076267;28;20260;-72
2020/12/01 02:21:38;;;;;;;11.68;8.85;;;;;;;;;;5075710;28;20337;-73
2020/12/01 02:24:04;;;;;;;9.75;8.75;;;;;;;;;;5077987;28;20181;-73
2020/12/01 02:26:31;;;;;;;14.18;9.88;;;;;;;;;;5075283;28;20500;-72
2020/12/01 02:28:57;;;;;;;15.48;10.80;;;;;;;;;;5077048;28;20184;-73
2020/12/01 02:34:00;;;;;;;17.23;11.73;;;;;;;;;;5027176;28;20687;-74
2020/12/01 02:36:26;;;;;;;11.40;9.90;;;;;;;;;;5031563;28;20332;-74
2020/12/01 02:38:52;;;;;;;15.83;11.60;;;;;;;;;;5032596;28;20178;-74
2020/12/01 02:41:18;;;;;;;19.63;12.63;;;;;;;;;;5031309;28;20939;-75
2020/12/01 02:43:46;;;;;;;14.35;11.90;;;;;;;;;;5032085;28;20842;-74
2020/12/01 02:46:16;;;;;;;15.40;11.00;;;;;;;;;;5027023;28;20186;-74
2020/12/01 02:48:42;;;;;;;34.70;12.40;;;;;;;;;;5030626;28;20185;-74
2020/12/01 02:51:08;;;;;;;24.20;14.07;;;;;;;;;;5030852;28;20701;-74
2020/12/01 02:53:34;;;;;;;24.57;15.30;;;;;;;;;;5023419;28;20213;-74
2020/12/01 02:56:00;;;;;;;30.37;15.67;;;;;;;;;;5030352;28;20433;-74
2020/12/01 02:58:26;;;;;;;36.60;18.57;;;;;;;;;;5030830;28;20441;-74
2020/12/01 03:00:52;;;;;;;26.13;17.20;;;;;;;;;;5031330;28;20425;-74
2020/12/01 03:03:18;;;;;;;28.47;19.77;;;;;;;;;;5030115;28;20530;-74
2020/12/01 03:05:43;;;;;;;25.60;18.90;;;;;;;;;;5023663;28;20954;-74
2020/12/01 03:08:09;;;;;;;23.13;18.17;;;;;;;;;;5028582;28;20465;-74
2020/12/01 03:10:35;;;;;;;30.83;19.13;;;;;;;;;;5030686;28;20433;-75
2020/12/01 03:13:01;;;;;;;24.37;17.20;;;;;;;;;;5022911;28;20306;-75
2020/12/01 03:15:28;;;;;;;32.07;20.20;;;;;;;;;;5025769;28;20942;-75
2020/12/01 03:17:54;;;;;;;33.33;20.48;;;;;;;;;;5029750;28;20418;-74
2020/12/01 03:20:20;;;;;;;34.77;20.63;;;;;;;;;;5028268;28;20571;-75
2020/12/01 03:22:46;;;;;;;32.80;18.90;;;;;;;;;;5029993;28;20478;-74
2020/12/01 03:25:15;;;;;;;28.60;18.93;;;;;;;;;;5017511;28;20451;-75
2020/12/01 03:27:43;;;;;;;28.73;18.15;;;;;;;;;;5025389;28;20505;-75
2020/12/01 03:30:11;;;;;;;26.90;17.50;;;;;;;;;;5030120;28;20174;-74
2020/12/01 03:32:37;;;;;;;27.52;18.38;;;;;;;;;;5029307;28;20213;-75
2020/12/01 03:35:03;;;;;;;27.95;19.95;;;;;;;;;;5022700;28;20209;-75
2020/12/01 03:37:29;;;;;;;24.15;16.90;;;;;;;;;;5023651;28;20411;-75
2020/12/01 03:39:55;;;;;;;24.60;17.85;;;;;;;;;;5024719;28;20199;-74
2020/12/01 03:42:21;;;;;;;26.07;17.40;;;;;;;;;;5029580;28;20210;-74
2020/12/01 03:44:49;;;;;;;30.63;17.15;;;;;;;;;;5026736;28;20447;-75
2020/12/01 03:47:15;;;;;;;27.52;17.70;;;;;;;;;;5024695;28;20206;-74
2020/12/01 03:49:40;;;;;;;28.75;19.80;;;;;;;;;;5017052;28;20295;-74
2020/12/01 03:52:06;;;;;;;27.40;18.47;;;;;;;;;;5029472;28;20198;-74
2020/12/01 03:54:32;;;;;;;28.83;17.73;;;;;;;;;;5022866;28;20426;-75
2020/12/01 03:56:59;;;;;;;21.63;17.60;;;;;;;;;;5026095;28;20443;-75
2020/12/01 03:59:24;;;;;;;31.90;17.20;;;;;;;;;;5030169;28;20470;-75
2020/12/01 04:01:51;;;;;;;22.77;16.20;;;;;;;;;;5028008;28;20284;-74
2020/12/01 04:04:17;;;;;;;28.98;16.80;;;;;;;;;;5022070;28;20426;-74
2020/12/01 04:06:43;;;;;;;20.63;14.85;;;;;;;;;;5026173;28;20216;-74
2020/12/01 04:09:09;;;;;;;26.00;16.40;;;;;;;;;;5028389;28;20641;-72
2020/12/01 04:11:35;;;;;;;25.00;15.10;;;;;;;;;;5025424;28;20842;-73
2020/12/01 04:14:01;;;;;;;23.80;15.03;;;;;;;;;;5030377;28;20429;-72
2020/12/01 04:16:27;;;;;;;18.50;13.63;;;;;;;;;;5019977;28;20598;-73
2020/12/01 04:18:53;;;;;;;18.58;12.88;;;;;;;;;;5029873;28;20527;-75
2020/12/01 04:21:21;;;;;;;20.83;14.00;;;;;;;;;;5023718;28;20655;-75
2020/12/01 04:23:51;;;;;;;16.23;12.18;;;;;;;;;;5023441;28;20594;-75
2020/12/01 04:26:18;;;;;;;17.55;11.75;;;;;;;;;;5023588;28;20617;-75
2020/12/01 04:28:44;;;;;;;14.88;10.63;;;;;;;;;;5029853;28;20659;-74
2020/12/01 04:31:10;;;;;;;21.20;12.17;;;;;;;;;;5028293;28;20182;-74
2020/12/01 04:33:36;;;;;;;17.93;11.13;;;;;;;;;;5028451;28;20465;-74
2020/12/01 04:36:02;;;;;;;17.83;8.80;;;;;;;;;;5023752;28;20475;-75
2020/12/01 04:38:30;;;;;;;16.60;8.17;;;;;;;;;;5022312;28;20527;-74
2020/12/01 04:40:56;;;;;;;17.05;9.77;;;;;;;;;;5028268;28;20519;-75
2020/12/01 04:43:33;;;;;;;16.83;9.47;;;;;;;;;;5027709;28;20280;-74
2020/12/01 04:45:59;;;;;;;13.70;9.02;;;;;;;;;;5028254;28;20432;-74
2020/12/01 04:48:31;;;;;;;13.85;7.22;;;;;;;;;;5028537;28;20234;-74
2020/12/01 04:51:03;;;;;;;13.45;7.60;;;;;;;;;;5028849;28;20176;-74
2020/12/01 04:53:47;;;;;;;9.88;6.43;;;;;;;;;;5026992;28;20772;-74
2020/12/01 04:56:31;;;;;;;13.43;7.30;;;;;;;;;;5023825;28;20186;-74
2020/12/01 04:59:11;;;;;;;13.50;7.55;;;;;;;;;;5029405;28;20546;-74
2020/12/01 05:01:40;;;;;;;13.48;6.95;;;;;;;;;;5026279;28;20205;-74
2020/12/01 05:04:17;;;;;;;14.65;6.25;;;;;;;;;;5026328;28;20243;-72
2020/12/01 05:09:33;;;;;;;13.73;4.75;;;;;;;;;;5025688;28;20596;-72
2020/12/01 05:12:00;;;;;;;10.68;4.80;;;;;;;;;;5029424;28;20200;-72
2020/12/01 05:14:29;;;;;;;4.47;4.07;;;;;;;;;;5022071;28;20182;-72
2020/12/01 05:17:14;;;;;;;5.80;3.72;;;;;;;;;;5026307;28;20548;-72
2020/12/01 05:19:40;;;;;;;13.40;4.82;;;;;;;;;;5026656;28;20186;-74
2020/12/01 05:22:08;;;;;;;7.95;5.53;;;;;;;;;;5028451;28;20264;-73
2020/12/01 05:24:39;;;;;;;7.20;4.95;;;;;;;;;;5029284;28;20205;-73
2020/12/01 05:27:06;;;;;;;12.43;5.57;;;;;;;;;;5030066;28;20248;-73
2020/12/01 05:29:33;;;;;;;9.00;5.82;;;;;;;;;;5033396;28;20174;-73
2020/12/01 05:32:01;;;;;;;9.73;6.90;;;;;;;;;;5031859;28;20214;-73
2020/12/01 05:34:29;;;;;;;8.70;5.90;;;;;;;;;;5029417;28;20620;-74
2020/12/01 05:37:06;;;;;;;12.40;6.90;;;;;;;;;;5031706;28;20304;-73
2020/12/01 05:39:34;;;;;;;11.25;6.68;;;;;;;;;;5029584;28;20201;-74
2020/12/01 05:42:20;;;;;;;12.70;7.07;;;;;;;;;;5032243;28;20631;-74
2020/12/01 05:44:59;;;;;;;14.18;7.40;;;;;;;;;;5030145;28;20193;-74
2020/12/01 05:47:33;;;;;;;16.05;9.00;;;;;;;;;;5025368;28;20982;-73
2020/12/01 05:50:10;;;;;;;24.17;10.35;;;;;;;;;;5031065;28;20170;-73
2020/12/01 05:52:44;;;;;;;13.40;9.32;;;;;;;;;;5028118;28;20216;-73
2020/12/01 05:55:17;;;;;;;18.73;9.98;;;;;;;;;;5032395;28;20264;-73
2020/12/01 05:57:44;;;;;;;23.45;11.00;;;;;;;;;;5033216;28;20197;-73
2020/12/01 06:00:18;;;;;;;13.93;10.07;;;;;;;;;;5032740;28;20265;-73
2020/12/01 06:03:05;;;;;;;14.40;9.52;;;;;;;;;;5029180;28;20206;-73
2020/12/01 06:05:31;;;;;;;12.23;9.10;;;;;;;;;;5029760;28;20261;-73
2020/12/01 06:08:03;;;;;;;16.08;9.98;;;;;;;;;;5032321;28;20645;-73
2020/12/01 06:10:41;;;;;;;16.88;9.48;;;;;;;;;;5031849;28;20182;-73
2020/12/01 06:13:13;;;;;;;14.95;9.10;;;;;;;;;;5023760;28;20275;-73
2020/12/01 06:15:42;;;;;;;13.07;10.02;;;;;;;;;;5026130;28;20186;-73
2020/12/01 06:18:17;;;;;;;14.88;10.13;;;;;;;;;;5032571;28;20236;-73
2020/12/01 06:21:03;;;;;;;16.40;10.90;;;;;;;;;;5023109;28;20206;-73
2020/12/01 06:23:34;;;;;;;16.67;12.50;;;;;;;;;;5023341;28;20874;-73
2020/12/01 06:26:16;;;;;;;16.85;11.68;;;;;;;;;;5027933;28;20189;-73
2020/12/01 06:28:51;;;;;;;18.35;11.95;;;;;;;;;;5029705;28;20212;-73
2020/12/01 06:31:17;;;;;;;19.38;13.60;;;;;;;;;;5032575;28;20185;-73
2020/12/01 06:34:02;;;;;;;18.97;11.53;;;;;;;;;;5031293;28;20267;-73
2020/12/01 06:36:43;;;;;;;19.10;12.57;;;;;;;;;;5028909;28;20964;-73
2020/12/01 06:39:31;;;;;;;15.32;11.02;;;;;;;;;;5028009;28;20661;-73
2020/12/01 06:42:18;;;;;;;19.70;12.25;;;;;;;;;;5027211;28;20194;-73
2020/12/01 06:44:45;;;;;;;14.93;11.13;;;;;;;;;;5023861;28;20179;-73
2020/12/01 06:47:12;;;;;;;22.63;14.93;;;;;;;;;;5029215;28;20433;-73
2020/12/01 06:49:38;;;;;;;16.73;10.70;;;;;;;;;;5024465;28;20430;-73
2020/12/01 06:52:05;;;;;;;17.00;13.35;;;;;;;;;;5026468;28;20259;-73
2020/12/01 06:54:31;;;;;;;17.52;12.32;;;;;;;;;;5032080;28;20170;-73
2020/12/01 06:57:03;;;;;;;20.23;13.70;;;;;;;;;;5023708;28;20904;-73
2020/12/01 06:59:29;;;;;;;18.38;11.63;;;;;;;;;;5030473;28;20174;-73
2020/12/01 07:02:07;;;;;;;22.45;12.98;;;;;;;;;;5020263;28;20256;-73
2020/12/01 07:04:33;;;;;;;18.10;13.10;;;;;;;;;;5029823;28;20269;-73
2020/12/01 07:07:01;;;;;;;19.08;12.43;;;;;;;;;;5028773;28;20182;-73
2020/12/01 07:09:28;;;;;;;19.50;13.25;;;;;;;;;;5028519;28;20203;-73
2020/12/01 07:12:05;;;;;;;21.02;13.73;;;;;;;;;;5031384;28;20240;-73
2020/12/01 07:14:30;;;;;;;24.52;15.13;;;;;;;;;;5023702;28;20175;-73
2020/12/01 07:16:56;;;;;;;24.30;14.20;;;;;;;;;;5030600;28;20170;-73
2020/12/01 07:19:36;;;;;;;21.98;15.65;;;;;;;;;;5022285;28;20187;-73
2020/12/01 07:22:06;;;;;;;21.10;14.10;;;;;;;;;;5027447;28;20677;-73
2020/12/01 07:24:32;;;;;;;19.65;13.40;;;;;;;;;;5022273;28;20175;-73
2020/12/01 07:27:02;;;;;;;23.57;13.60;;;;;;;;;;5022714;28;20189;-73
2020/12/01 07:29:39;;;;;;;22.50;13.70;;;;;;;;;;5031464;28;20464;-73
2020/12/01 07:32:10;;;;;;;18.05;13.50;;;;;;;;;;5030939;28;20693;-73
2020/12/01 07:34:36;;;;;;;21.02;13.82;;;;;;;;;;5025544;28;20174;-73
2020/12/01 07:37:20;;;;;;;25.85;13.93;;;;;;;;;;5022540;28;20236;-73
2020/12/01 07:39:57;;;;;;;22.42;14.60;;;;;;;;;;5025139;28;20182;-73
2020/12/01 07:42:25;;;;;;;16.85;12.70;;;;;;;;;;5030300;28;20248;-72
2020/12/01 07:44:51;;;;;;;21.55;12.23;;;;;;;;;;5027411;28;20602;-73
2020/12/01 07:47:20;;;;;;;25.35;15.77;;;;;;;;;;5025895;28;20574;-73
2020/12/01 07:49:58;;;;;;;20.20;15.60;;;;;;;;;;5030039;28;20210;-73
2020/12/01 07:52:31;;;;;;;19.60;13.05;;;;;;;;;;5024630;28;20194;-73
2020/12/01 07:55:02;;;;;;;29.38;14.65;;;;;;;;;;5022283;28;20177;-73
2020/12/01 07:57:28;;;;;;;25.00;16.48;;;;;;;;;;5029204;28;20193;-73
2020/12/01 07:59:54;;;;;;;24.38;15.48;;;;;;;;;;5022281;28;20217;-73
2020/12/01 08:02:24;;;;;;;22.47;16.57;;;;;;;;;;5029467;28;20198;-73
2020/12/01 08:05:20;;;;;;;23.67;15.77;;;;;;;;;;5030539;28;20444;-73
2020/12/01 08:07:54;;;;;;;26.80;16.38;;;;;;;;;;5017339;28;20218;-73
2020/12/01 08:10:20;;;;;;;28.40;16.00;;;;;;;;;;5028623;28;20231;-73
2020/12/01 08:12:48;;;;;;;22.67;14.18;;;;;;;;;;5021354;28;20223;-73
2020/12/01 08:15:20;;;;;;;29.40;15.63;;;;;;;;;;5018685;28;20244;-73
2020/12/01 08:17:47;;;;;;;21.70;15.50;;;;;;;;;;5020747;28;20582;-73
2020/12/01 08:20:16;;;;;;;35.97;18.08;;;;;;;;;;5021176;28;20224;-73
2020/12/01 08:22:44;;;;;;;22.65;16.52;;;;;;;;;;5020840;28;20265;-73
2020/12/01 08:25:14;;;;;;;23.00;17.60;;;;;;;;;;5019928;28;20264;-74
2020/12/01 08:27:51;;;;;;;27.00;17.83;;;;;;;;;;5023887;28;20199;-73
2020/12/01 08:30:29;;;;;;;31.20;15.30;;;;;;;;;;5030099;28;20189;-74
2020/12/01 08:32:59;;;;;;;24.00;16.63;;;;;;;;;;5021754;28;20257;-74
2020/12/01 08:35:27;;;;;;;22.83;17.17;;;;;;;;;;5040733;23;20226;-74
2020/12/01 08:38:01;;;;;;;32.90;17.33;;;;;;;;;;5020654;28;20194;-74
2020/12/01 08:40:36;;;;;;;31.02;17.92;;;;;;;;;;5022633;28;20177;-73
2020/12/01 08:43:14;;;;;;;34.70;16.67;;;;;;;;;;5020610;28;20205;-73
2020/12/01 08:45:46;;;;;;;27.05;16.20;;;;;;;;;;5003984;28;20233;-73
2020/12/01 08:48:22;;;;;;;25.20;16.38;;;;;;;;;;5010279;28;20206;-74
2020/12/01 08:50:56;;;;;;;32.40;17.80;;;;;;;;;;5003382;28;20748;-73
2020/12/01 08:53:22;;;;;;;27.33;18.48;;;;;;;;;;5006595;28;20187;-73
2020/12/01 08:55:54;;;;;;;28.17;16.45;;;;;;;;;;5003673;28;20170;-73
2020/12/01 08:58:21;;;;;;;23.25;15.75;;;;;;;;;;5002216;28;20206;-74
2020/12/01 09:01:05;;;;;;;25.92;17.38;;;;;;;;;;5010120;28;20187;-73
2020/12/01 09:03:34;;;;;;;29.05;17.90;;;;;;;;;;5009487;28;20182;-74
2020/12/01 09:06:01;;;;;;;24.23;15.98;;;;;;;;;;5005940;28;20333;-73
2020/12/01 09:09:08;;;;;;;27.17;18.00;;;;;;;;;;5009568;28;20231;-74
2020/12/01 09:16:58;;;;;;;29.15;17.73;;;;;;;;;;5003737;28;20679;-74
2020/12/01 09:22:25;;;;;;;26.15;16.48;;;;;;;;;;5009707;28;20234;-74
2020/12/01 09:24:51;;;;;;;26.05;16.23;;;;;;;;;;5002467;28;20199;-74
2020/12/01 09:27:18;;;;;;;30.02;16.88;;;;;;;;;;5001896;28;20246;-74
2020/12/01 09:29:48;;;;;;;30.27;16.17;;;;;;;;;;5001542;28;20187;-74
2020/12/01 09:32:17;;;;;;;26.63;17.63;;;;;;;;;;4997321;28;20258;-74
2020/12/01 09:34:43;;;;;;;26.98;15.68;;;;;;;;;;4997180;28;20297;-74
2020/12/01 09:37:13;;;;;;;32.05;17.48;;;;;;;;;;5004496;28;20262;-74
2020/12/01 09:39:41;;;;;;;28.67;16.40;;;;;;;;;;5001814;28;20262;-74
2020/12/01 09:45:31;;;;;;;27.58;15.55;;;;;;;;;;5021983;28;20303;-74
2020/12/01 09:48:03;;;;;;;23.40;14.40;;;;;;;;;;5006711;28;20344;-74
2020/12/01 09:50:31;;;;;;;27.92;17.23;;;;;;;;;;5001803;28;20171;-74
2020/12/01 09:58:27;;;;;;;31.85;16.55;;;;;;;;;;5004267;28;20197;-74
2020/12/01 10:04:31;;;;;;;24.30;15.20;;;;;;;;;;5002416;28;20642;-74
2020/12/01 10:19:36;;;;;;;17.60;11.70;;;;;;;;;;5004112;28;20430;-74
2020/12/01 10:22:52;;;;;;;27.00;11.60;;;;;;;;;;5012305;28;20201;-74
2020/12/01 10:27:58;;;;;;;30.13;11.60;;;;;;;;;;5005029;28;20332;-74
2020/12/01 10:35:25;;;;;;;22.48;11.48;;;;;;;;;;5004510;28;20782;-73
2020/12/01 10:37:58;;;;;;;19.30;11.13;;;;;;;;;;5009301;28;20270;-74
2020/12/01 10:40:25;;;;;;;15.80;11.02;;;;;;;;;;5003795;28;20985;-74
2020/12/01 10:42:51;;;;;;;25.60;11.63;;;;;;;;;;5011488;28;20230;-74
2020/12/01 10:45:18;;;;;;;20.50;10.40;;;;;;;;;;5011881;28;20202;-74
2020/12/01 10:47:44;;;;;;;14.00;10.25;;;;;;;;;;5004516;28;20385;-74
2020/12/01 10:50:10;;;;;;;16.90;10.93;;;;;;;;;;5027875;28;20190;-74
2020/12/01 10:52:36;;;;;;;19.55;11.02;;;;;;;;;;5010531;28;20513;-74
2020/12/01 10:55:03;;;;;;;16.73;9.43;;;;;;;;;;5001994;28;20282;-74
2020/12/01 10:57:29;;;;;;;16.73;9.88;;;;;;;;;;5008136;28;20681;-74
2020/12/01 10:59:55;;;;;;;13.50;9.40;;;;;;;;;;5004341;28;20188;-73
2020/12/01 11:02:21;;;;;;;20.97;10.80;;;;;;;;;;5010964;28;20446;-73
2020/12/01 11:04:47;;;;;;;15.77;9.30;;;;;;;;;;5004225;28;20470;-73
2020/12/01 11:07:13;;;;;;;12.00;9.48;;;;;;;;;;5008607;28;20445;-74
2020/12/01 11:09:39;;;;;;;17.30;10.18;;;;;;;;;;5012206;28;20262;-73
2020/12/01 11:12:05;;;;;;;13.70;8.83;;;;;;;;;;5009599;28;20218;-73
2020/12/01 11:14:31;;;;;;;13.70;8.33;;;;;;;;;;5010353;28;20446;-73
2020/12/01 11:16:57;;;;;;;17.37;8.30;;;;;;;;;;5006277;28;20564;-73
2020/12/01 11:19:23;;;;;;;10.93;8.37;;;;;;;;;;5012198;28;20932;-73
2020/12/01 11:21:49;;;;;;;16.00;7.70;;;;;;;;;;5011733;28;20646;-73
2020/12/01 11:24:15;;;;;;;16.40;7.90;;;;;;;;;;5010957;28;20939;-73
2020/12/01 11:26:40;;;;;;;11.07;8.33;;;;;;;;;;5005082;28;20979;-73
2020/12/01 11:29:06;;;;;;;11.40;8.10;;;;;;;;;;5008518;28;20972;-73
2020/12/01 11:31:32;;;;;;;12.10;7.60;;;;;;;;;;5005795;28;21089;-74
2020/12/01 11:34:00;;;;;;;12.05;8.25;;;;;;;;;;5006945;28;20472;-74
2020/12/01 11:36:26;;;;;;;9.68;7.10;;;;;;;;;;5010476;28;20182;-74
2020/12/01 11:38:52;;;;;;;11.32;7.35;;;;;;;;;;5004555;28;20180;-74
2020/12/01 11:41:18;;;;;;;15.60;8.80;;;;;;;;;;4997070;28;20175;-74
2020/12/01 11:43:44;;;;;;;12.60;9.05;;;;;;;;;;5004477;28;20865;-74
2020/12/01 11:46:10;;;;;;;9.10;7.20;;;;;;;;;;5001651;28;20183;-74
2020/12/01 11:48:36;;;;;;;13.15;8.77;;;;;;;;;;5001343;28;20455;-73
2020/12/01 11:51:04;;;;;;;9.83;7.00;;;;;;;;;;5009410;28;20625;-74
2020/12/01 11:53:32;;;;;;;11.35;7.03;;;;;;;;;;5003215;28;20418;-74
2020/12/01 11:56:01;;;;;;;10.98;7.38;;;;;;;;;;4999904;28;20175;-74
2020/12/01 11:58:29;;;;;;;9.75;6.70;;;;;;;;;;5011704;28;20582;-74
2020/12/01 12:00:55;;;;;;;11.40;7.45;;;;;;;;;;5011174;28;20203;-74
2020/12/01 12:03:21;;;;;;;9.27;6.70;;;;;;;;;;5002847;28;20218;-74
2020/12/01 12:05:47;;;;;;;9.90;7.10;;;;;;;;;;5010148;28;20434;-74
2020/12/01 12:08:13;;;;;;;9.20;6.50;;;;;;;;;;4999672;28;20466;-74
2020/12/01 12:10:39;;;;;;;8.50;7.10;;;;;;;;;;5011523;28;20422;-74
2020/12/01 12:13:05;;;;;;;13.05;6.10;;;;;;;;;;5010500;28;20413;-74
2020/12/01 12:15:31;;;;;;;7.93;7.13;;;;;;;;;;5004348;28;20203;-73
2020/12/01 12:17:57;;;;;;;10.20;6.47;;;;;;;;;;5010017;28;20429;-73
2020/12/01 12:20:23;;;;;;;10.53;6.97;;;;;;;;;;5011121;28;20430;-74
2020/12/01 12:22:49;;;;;;;7.35;6.38;;;;;;;;;;5009602;28;20931;-74
2020/12/01 12:25:16;;;;;;;10.15;6.25;;;;;;;;;;5002637;28;20628;-73
2020/12/01 12:27:42;;;;;;;9.38;7.28;;;;;;;;;;5003196;28;20262;-73
2020/12/01 12:30:10;;;;;;;8.60;6.63;;;;;;;;;;5002269;28;20262;-73
2020/12/01 12:32:37;;;;;;;9.30;6.47;;;;;;;;;;5010741;28;20262;-73
2020/12/01 12:35:04;;;;;;;11.98;6.80;;;;;;;;;;5008929;28;20269;-72
2020/12/01 12:37:30;;;;;;;9.45;6.72;;;;;;;;;;5004427;28;20171;-73
2020/12/01 12:39:57;;;;;;;8.40;5.30;;;;;;;;;;5001419;28;20175;-73
2020/12/01 12:42:23;;;;;;;9.18;7.22;;;;;;;;;;5010824;28;21015;-73
2020/12/01 12:44:49;;;;;;;8.30;6.30;;;;;;;;;;5010812;28;20286;-73
2020/12/01 12:47:15;;;;;;;8.90;6.70;;;;;;;;;;5010448;28;20967;-73
2020/12/01 12:49:44;;;;;;;10.93;7.18;;;;;;;;;;5010888;28;20473;-72
2020/12/01 12:52:12;;;;;;;14.15;8.20;;;;;;;;;;5010398;28;20644;-72
2020/12/01 12:54:37;;;;;;;10.90;7.25;;;;;;;;;;5010195;28;20206;-72
2020/12/01 12:57:03;;;;;;;10.50;7.67;;;;;;;;;;5008251;28;20209;-73
2020/12/01 12:59:29;;;;;;;8.55;6.68;;;;;;;;;;5009526;28;20418;-73
2020/12/01 13:01:56;;;;;;;10.97;7.43;;;;;;;;;;5008190;28;20183;-73
2020/12/01 13:04:22;;;;;;;10.13;7.90;;;;;;;;;;5010056;28;20453;-73
2020/12/01 13:06:48;;;;;;;9.17;6.60;;;;;;;;;;5009589;28;20600;-73
2020/12/01 13:09:15;;;;;;;8.90;7.40;;;;;;;;;;5009199;28;20472;-73
2020/12/01 13:11:41;;;;;;;9.00;7.15;;;;;;;;;;5007032;28;20430;-73
2020/12/01 13:14:07;;;;;;;9.87;6.87;;;;;;;;;;4999741;28;20579;-72
2020/12/01 13:16:33;;;;;;;11.60;7.35;;;;;;;;;;5007327;28;20491;-73
2020/12/01 13:18:59;;;;;;;8.60;7.33;;;;;;;;;;5001387;28;20188;-73
2020/12/01 13:21:25;;;;;;;11.13;8.60;;;;;;;;;;5007244;28;20434;-73
2020/12/01 13:23:51;;;;;;;9.60;7.20;;;;;;;;;;5010043;28;20449;-72
2020/12/01 13:26:18;;;;;;;10.57;7.63;;;;;;;;;;5010492;28;20430;-72
2020/12/01 13:28:45;;;;;;;14.32;7.30;;;;;;;;;;4999031;28;20195;-72
2020/12/01 13:31:11;;;;;;;10.20;7.38;;;;;;;;;;5003719;28;20183;-72
2020/12/01 13:33:38;;;;;;;10.10;7.60;;;;;;;;;;4999560;28;20206;-72
2020/12/01 13:36:06;;;;;;;10.32;8.40;;;;;;;;;;5002408;28;20642;-72
2020/12/01 13:38:32;;;;;;;12.15;7.97;;;;;;;;;;5009163;28;20265;-72
2020/12/01 13:40:58;;;;;;;12.40;8.60;;;;;;;;;;5010415;28;20615;-72
2020/12/01 13:43:24;;;;;;;11.63;7.70;;;;;;;;;;4999077;28;20427;-72
2020/12/01 13:45:51;;;;;;;10.15;7.95;;;;;;;;;;5006507;28;20433;-72
2020/12/01 13:48:19;;;;;;;12.55;8.20;;;;;;;;;;5006396;28;20199;-72
2020/12/01 13:50:46;;;;;;;17.70;9.02;;;;;;;;;;5013408;28;20218;-72
2020/12/01 13:53:13;;;;;;;15.02;8.73;;;;;;;;;;5013316;28;20210;-72
2020/12/01 13:55:40;;;;;;;11.73;8.73;;;;;;;;;;5013150;28;20182;-72
2020/12/01 13:58:06;;;;;;;14.25;9.00;;;;;;;;;;5013638;28;20187;-72
2020/12/01 14:00:32;;;;;;;11.75;8.85;;;;;;;;;;5010387;28;20198;-72
2020/12/01 14:02:58;;;;;;;9.85;8.70;;;;;;;;;;5013390;28;20569;-72
2020/12/01 14:05:25;;;;;;;12.90;9.35;;;;;;;;;;5012904;28;20214;-73
2020/12/01 14:07:52;;;;;;;14.05;9.32;;;;;;;;;;5010408;28;20197;-72
2020/12/01 14:10:18;;;;;;;13.38;9.65;;;;;;;;;;5006498;28;20649;-72
2020/12/01 14:12:44;;;;;;;11.15;8.70;;;;;;;;;;5004678;28;20175;-72
2020/12/01 14:15:10;;;;;;;13.23;10.07;;;;;;;;;;5005299;28;20203;-72
2020/12/01 14:17:36;;;;;;;12.32;9.73;;;;;;;;;;5006788;28;20496;-72
2020/12/01 14:20:04;;;;;;;14.23;11.07;;;;;;;;;;5003503;28;20190;-72
2020/12/01 14:22:30;;;;;;;17.63;10.43;;;;;;;;;;5004422;28;20427;-72
2020/12/01 14:24:58;;;;;;;19.53;11.70;;;;;;;;;;5002977;28;20257;-72
2020/12/01 14:27:24;;;;;;;12.20;9.70;;;;;;;;;;5004073;28;20432;-72
2020/12/01 14:29:50;;;;;;;16.07;11.40;;;;;;;;;;5005039;28;20682;-72
2020/12/01 14:32:16;;;;;;;15.95;11.65;;;;;;;;;;5003665;28;20576;-72
2020/12/01 14:34:42;;;;;;;13.95;10.60;;;;;;;;;;5004494;28;20210;-72
2020/12/01 14:37:11;;;;;;;15.23;11.07;;;;;;;;;;5003547;28;20266;-72
2020/12/01 14:39:38;;;;;;;16.33;11.52;;;;;;;;;;5002038;28;20508;-72
2020/12/01 14:42:12;;;;;;;13.02;10.13;;;;;;;;;;5008602;28;20665;-72
2020/12/01 14:44:38;;;;;;;16.42;10.35;;;;;;;;;;5002820;28;20202;-73
2020/12/01 14:47:19;;;;;;;12.95;9.75;;;;;;;;;;5003322;28;20221;-73
2020/12/01 14:49:54;;;;;;;14.65;12.23;;;;;;;;;;5005412;28;20206;-73
2020/12/01 14:52:26;;;;;;;18.42;14.18;;;;;;;;;;5001091;28;20234;-72
2020/12/01 14:54:58;;;;;;;18.85;13.65;;;;;;;;;;5008666;28;20191;-71
2020/12/01 14:57:41;;;;;;;19.95;14.90;;;;;;;;;;5006497;28;20171;-72
2020/12/01 15:00:11;;;;;;;19.33;13.32;;;;;;;;;;5001828;28;20179;-72
2020/12/01 15:02:44;;;;;;;18.70;13.75;;;;;;;;;;5007978;28;20214;-72
2020/12/01 15:05:29;;;;;;;17.63;13.88;;;;;;;;;;5012753;28;20219;-72
2020/12/01 15:08:04;;;;;;;16.10;12.60;;;;;;;;;;5002935;28;20269;-72
2020/12/01 15:10:38;;;;;;;17.65;12.60;;;;;;;;;;4992920;28;20175;-72
2020/12/01 15:13:04;;;;;;;20.77;13.70;;;;;;;;;;5001854;28;20171;-71
2020/12/01 15:15:40;;;;;;;20.47;12.87;;;;;;;;;;4995934;28;20207;-72
2020/12/01 15:18:10;;;;;;;17.02;12.48;;;;;;;;;;4993215;28;20411;-72
2020/12/01 15:20:36;;;;;;;14.48;11.40;;;;;;;;;;4993182;28;20180;-72
2020/12/01 15:23:05;;;;;;;21.98;13.70;;;;;;;;;;4991866;28;20190;-72